sensor_id;sensor_type;location;lat;lon;timestamp;temperature;humidity
26909;DHT22;14477;51.038;4.588;2023-06-14T00:01:50;22.90;42.80
26909;DHT22;14477;51.038;4.588;2023-06-14T00:04:16;22.90;42.90
26909;DHT22;14477;51.038;4.588;2023-06-14T00:06:43;22.90;43.10
26909;DHT22;14477;51.038;4.588;2023-06-14T00:09:11;22.90;43.30
26909;DHT22;14477;51.038;4.588;2023-06-14T00:11:42;22.80;43.40
26909;DHT22;14477;51.038;4.588;2023-06-14T00:14:07;22.80;43.40
26909;DHT22;14477;51.038;4.588;2023-06-14T00:16:33;22.70;43.40
26909;DHT22;14477;51.038;4.588;2023-06-14T00:19:01;22.70;43.50
26909;DHT22;14477;51.038;4.588;2023-06-14T00:21:29;22.70;43.60
26909;DHT22;14477;51.038;4.588;2023-06-14T00:23:55;22.60;43.60
26909;DHT22;14477;51.038;4.588;2023-06-14T00:26:21;22.60;43.70
26909;DHT22;14477;51.038;4.588;2023-06-14T00:28:47;22.50;43.90
26909;DHT22;14477;51.038;4.588;2023-06-14T00:31:13;22.50;43.90
26909;DHT22;14477;51.038;4.588;2023-06-14T00:33:38;22.40;43.90
26909;DHT22;14477;51.038;4.588;2023-06-14T00:36:04;22.40;44.00
26909;DHT22;14477;51.038;4.588;2023-06-14T00:38:30;22.40;44.10
26909;DHT22;14477;51.038;4.588;2023-06-14T00:40:56;22.30;44.10
26909;DHT22;14477;51.038;4.588;2023-06-14T00:43:22;22.30;44.10
26909;DHT22;14477;51.038;4.588;2023-06-14T00:45:47;22.30;44.20
26909;DHT22;14477;51.038;4.588;2023-06-14T00:48:15;22.20;44.30
26909;DHT22;14477;51.038;4.588;2023-06-14T00:50:41;22.10;44.30
26909;DHT22;14477;51.038;4.588;2023-06-14T00:53:07;22.10;44.40
26909;DHT22;14477;51.038;4.588;2023-06-14T00:55:33;22.10;44.40
26909;DHT22;14477;51.038;4.588;2023-06-14T00:57:59;22.00;44.50
26909;DHT22;14477;51.038;4.588;2023-06-14T01:00:25;22.00;44.70
26909;DHT22;14477;51.038;4.588;2023-06-14T01:02:51;21.90;44.80
26909;DHT22;14477;51.038;4.588;2023-06-14T01:05:17;21.90;44.80
26909;DHT22;14477;51.038;4.588;2023-06-14T01:15:35;21.70;45.40
26909;DHT22;14477;51.038;4.588;2023-06-14T01:18:01;21.60;45.20
26909;DHT22;14477;51.038;4.588;2023-06-14T01:20:32;21.60;45.30
26909;DHT22;14477;51.038;4.588;2023-06-14T01:22:59;21.60;45.40
26909;DHT22;14477;51.038;4.588;2023-06-14T01:25:25;21.50;45.30
26909;DHT22;14477;51.038;4.588;2023-06-14T01:28:03;21.50;45.40
26909;DHT22;14477;51.038;4.588;2023-06-14T01:30:37;21.40;46.50
26909;DHT22;14477;51.038;4.588;2023-06-14T01:33:05;21.40;45.50
26909;DHT22;14477;51.038;4.588;2023-06-14T01:35:31;21.40;45.70
26909;DHT22;14477;51.038;4.588;2023-06-14T01:37:57;21.30;45.70
26909;DHT22;14477;51.038;4.588;2023-06-14T01:40:24;21.30;45.90
26909;DHT22;14477;51.038;4.588;2023-06-14T01:42:51;21.20;45.90
26909;DHT22;14477;51.038;4.588;2023-06-14T01:45:18;21.20;46.00
26909;DHT22;14477;51.038;4.588;2023-06-14T01:47:45;21.20;46.20
26909;DHT22;14477;51.038;4.588;2023-06-14T01:50:11;21.10;46.10
26909;DHT22;14477;51.038;4.588;2023-06-14T01:52:37;21.10;46.30
26909;DHT22;14477;51.038;4.588;2023-06-14T01:55:04;21.10;46.40
26909;DHT22;14477;51.038;4.588;2023-06-14T01:57:31;21.00;46.50
26909;DHT22;14477;51.038;4.588;2023-06-14T01:59:56;20.90;46.50
26909;DHT22;14477;51.038;4.588;2023-06-14T02:02:22;21.00;46.60
26909;DHT22;14477;51.038;4.588;2023-06-14T02:04:48;20.90;46.70
26909;DHT22;14477;51.038;4.588;2023-06-14T02:07:14;20.90;46.80
26909;DHT22;14477;51.038;4.588;2023-06-14T02:09:41;20.90;46.90
26909;DHT22;14477;51.038;4.588;2023-06-14T02:12:07;20.90;47.00
26909;DHT22;14477;51.038;4.588;2023-06-14T02:14:33;20.80;46.90
26909;DHT22;14477;51.038;4.588;2023-06-14T02:16:59;20.80;47.00
26909;DHT22;14477;51.038;4.588;2023-06-14T02:19:26;20.80;47.10
26909;DHT22;14477;51.038;4.588;2023-06-14T02:21:52;20.70;47.10
26909;DHT22;14477;51.038;4.588;2023-06-14T02:24:18;20.70;47.10
26909;DHT22;14477;51.038;4.588;2023-06-14T02:26:44;20.70;47.10
26909;DHT22;14477;51.038;4.588;2023-06-14T02:29:09;20.60;47.20
26909;DHT22;14477;51.038;4.588;2023-06-14T02:31:38;20.60;47.10
26909;DHT22;14477;51.038;4.588;2023-06-14T02:34:04;20.60;47.20
26909;DHT22;14477;51.038;4.588;2023-06-14T02:36:29;20.50;47.40
26909;DHT22;14477;51.038;4.588;2023-06-14T02:38:56;20.50;47.50
26909;DHT22;14477;51.038;4.588;2023-06-14T02:41:26;20.40;47.60
26909;DHT22;14477;51.038;4.588;2023-06-14T02:43:52;20.40;47.90
26909;DHT22;14477;51.038;4.588;2023-06-14T02:46:18;20.40;47.70
26909;DHT22;14477;51.038;4.588;2023-06-14T02:48:44;20.40;47.80
26909;DHT22;14477;51.038;4.588;2023-06-14T02:51:10;20.30;47.80
26909;DHT22;14477;51.038;4.588;2023-06-14T02:53:38;20.30;47.90
26909;DHT22;14477;51.038;4.588;2023-06-14T02:56:03;20.30;48.00
26909;DHT22;14477;51.038;4.588;2023-06-14T02:58:30;20.20;48.00
26909;DHT22;14477;51.038;4.588;2023-06-14T03:00:55;20.20;48.00
26909;DHT22;14477;51.038;4.588;2023-06-14T03:03:21;20.20;48.20
26909;DHT22;14477;51.038;4.588;2023-06-14T03:05:50;20.20;49.00
26909;DHT22;14477;51.038;4.588;2023-06-14T03:08:16;20.10;48.40
26909;DHT22;14477;51.038;4.588;2023-06-14T03:10:48;20.10;48.40
26909;DHT22;14477;51.038;4.588;2023-06-14T03:13:15;20.00;48.70
26909;DHT22;14477;51.038;4.588;2023-06-14T03:15:46;20.00;48.50
26909;DHT22;14477;51.038;4.588;2023-06-14T03:18:13;20.00;48.60
26909;DHT22;14477;51.038;4.588;2023-06-14T03:20:40;19.90;48.60
26909;DHT22;14477;51.038;4.588;2023-06-14T03:23:06;19.90;48.80
26909;DHT22;14477;51.038;4.588;2023-06-14T03:25:32;19.90;48.90
26909;DHT22;14477;51.038;4.588;2023-06-14T03:28:01;19.80;48.90
26909;DHT22;14477;51.038;4.588;2023-06-14T03:30:27;19.80;49.00
26909;DHT22;14477;51.038;4.588;2023-06-14T03:32:53;19.80;49.10
26909;DHT22;14477;51.038;4.588;2023-06-14T03:35:21;19.70;49.10
26909;DHT22;14477;51.038;4.588;2023-06-14T03:37:47;19.70;49.20
26909;DHT22;14477;51.038;4.588;2023-06-14T03:40:14;19.70;49.30
26909;DHT22;14477;51.038;4.588;2023-06-14T03:42:40;19.70;49.60
26909;DHT22;14477;51.038;4.588;2023-06-14T03:45:06;19.70;49.40
26909;DHT22;14477;51.038;4.588;2023-06-14T03:47:33;19.60;49.50
26909;DHT22;14477;51.038;4.588;2023-06-14T03:49:59;19.60;49.50
26909;DHT22;14477;51.038;4.588;2023-06-14T03:52:26;19.60;49.60
26909;DHT22;14477;51.038;4.588;2023-06-14T03:54:51;19.60;49.60
26909;DHT22;14477;51.038;4.588;2023-06-14T03:57:17;19.60;49.60
26909;DHT22;14477;51.038;4.588;2023-06-14T03:59:43;19.60;49.70
26909;DHT22;14477;51.038;4.588;2023-06-14T04:02:09;19.50;49.70
26909;DHT22;14477;51.038;4.588;2023-06-14T04:04:35;19.60;49.90
26909;DHT22;14477;51.038;4.588;2023-06-14T04:07:01;19.50;49.90
26909;DHT22;14477;51.038;4.588;2023-06-14T04:09:29;19.50;50.00
26909;DHT22;14477;51.038;4.588;2023-06-14T04:11:55;19.50;50.00
26909;DHT22;14477;51.038;4.588;2023-06-14T04:14:21;19.50;50.00
26909;DHT22;14477;51.038;4.588;2023-06-14T04:16:48;19.50;50.10
26909;DHT22;14477;51.038;4.588;2023-06-14T04:19:15;19.50;50.20
26909;DHT22;14477;51.038;4.588;2023-06-14T04:21:41;19.40;50.20
26909;DHT22;14477;51.038;4.588;2023-06-14T04:24:07;19.40;50.40
26909;DHT22;14477;51.038;4.588;2023-06-14T04:26:39;19.40;50.60
26909;DHT22;14477;51.038;4.588;2023-06-14T04:29:05;19.40;50.60
26909;DHT22;14477;51.038;4.588;2023-06-14T04:31:32;19.50;50.80
26909;DHT22;14477;51.038;4.588;2023-06-14T04:34:03;19.40;50.80
26909;DHT22;14477;51.038;4.588;2023-06-14T04:36:35;19.40;50.90
26909;DHT22;14477;51.038;4.588;2023-06-14T04:39:04;19.40;51.10
26909;DHT22;14477;51.038;4.588;2023-06-14T04:41:30;19.40;51.10
26909;DHT22;14477;51.038;4.588;2023-06-14T04:44:00;19.40;51.20
26909;DHT22;14477;51.038;4.588;2023-06-14T04:46:30;19.40;51.60
26909;DHT22;14477;51.038;4.588;2023-06-14T04:48:57;19.40;51.30
26909;DHT22;14477;51.038;4.588;2023-06-14T04:51:28;19.50;51.50
26909;DHT22;14477;51.038;4.588;2023-06-14T04:53:58;19.50;51.60
26909;DHT22;14477;51.038;4.588;2023-06-14T04:56:24;19.50;51.80
26909;DHT22;14477;51.038;4.588;2023-06-14T04:58:52;19.60;51.80
26909;DHT22;14477;51.038;4.588;2023-06-14T05:01:19;19.60;51.80
26909;DHT22;14477;51.038;4.588;2023-06-14T05:03:46;19.60;51.80
26909;DHT22;14477;51.038;4.588;2023-06-14T05:06:14;19.70;52.00
26909;DHT22;14477;51.038;4.588;2023-06-14T05:08:40;19.70;51.90
26909;DHT22;14477;51.038;4.588;2023-06-14T05:11:06;19.80;51.90
26909;DHT22;14477;51.038;4.588;2023-06-14T05:13:32;19.80;52.00
26909;DHT22;14477;51.038;4.588;2023-06-14T05:15:58;19.80;51.90
26909;DHT22;14477;51.038;4.588;2023-06-14T05:18:24;19.90;52.00
26909;DHT22;14477;51.038;4.588;2023-06-14T05:20:53;19.90;51.90
26909;DHT22;14477;51.038;4.588;2023-06-14T05:23:19;20.00;51.90
26909;DHT22;14477;51.038;4.588;2023-06-14T05:25:45;20.00;51.90
26909;DHT22;14477;51.038;4.588;2023-06-14T05:28:12;20.10;52.00
26909;DHT22;14477;51.038;4.588;2023-06-14T05:30:38;20.10;51.80
26909;DHT22;14477;51.038;4.588;2023-06-14T05:33:05;20.20;51.80
26909;DHT22;14477;51.038;4.588;2023-06-14T05:35:31;20.20;51.80
26909;DHT22;14477;51.038;4.588;2023-06-14T05:37:57;20.20;51.80
26909;DHT22;14477;51.038;4.588;2023-06-14T05:40:22;20.30;51.80
26909;DHT22;14477;51.038;4.588;2023-06-14T05:42:48;20.30;51.80
26909;DHT22;14477;51.038;4.588;2023-06-14T05:45:14;20.40;51.90
26909;DHT22;14477;51.038;4.588;2023-06-14T05:47:41;20.40;51.90
26909;DHT22;14477;51.038;4.588;2023-06-14T05:50:07;20.50;52.00
26909;DHT22;14477;51.038;4.588;2023-06-14T05:52:34;20.60;52.10
26909;DHT22;14477;51.038;4.588;2023-06-14T05:55:01;20.60;51.90
26909;DHT22;14477;51.038;4.588;2023-06-14T05:57:27;20.70;52.00
26909;DHT22;14477;51.038;4.588;2023-06-14T05:59:53;20.80;52.10
26909;DHT22;14477;51.038;4.588;2023-06-14T06:02:19;20.90;51.90
26909;DHT22;14477;51.038;4.588;2023-06-14T06:04:45;20.90;52.70
26909;DHT22;14477;51.038;4.588;2023-06-14T06:07:11;21.00;52.00
26909;DHT22;14477;51.038;4.588;2023-06-14T06:09:37;21.00;52.10
26909;DHT22;14477;51.038;4.588;2023-06-14T06:12:05;21.10;52.00
26909;DHT22;14477;51.038;4.588;2023-06-14T06:14:31;21.20;52.10
26909;DHT22;14477;51.038;4.588;2023-06-14T06:16:57;21.30;52.20
26909;DHT22;14477;51.038;4.588;2023-06-14T06:19:23;21.40;52.00
26909;DHT22;14477;51.038;4.588;2023-06-14T06:21:48;21.50;51.90
26909;DHT22;14477;51.038;4.588;2023-06-14T06:24:14;21.60;51.80
26909;DHT22;14477;51.038;4.588;2023-06-14T06:26:40;21.60;51.70
26909;DHT22;14477;51.038;4.588;2023-06-14T06:29:06;21.70;51.60
26909;DHT22;14477;51.038;4.588;2023-06-14T06:31:32;21.80;51.60
26909;DHT22;14477;51.038;4.588;2023-06-14T06:33:58;21.90;51.70
26909;DHT22;14477;51.038;4.588;2023-06-14T06:36:24;22.00;51.60
26909;DHT22;14477;51.038;4.588;2023-06-14T06:38:50;22.10;51.70
26909;DHT22;14477;51.038;4.588;2023-06-14T06:41:16;22.10;51.70
26909;DHT22;14477;51.038;4.588;2023-06-14T06:43:41;22.30;51.80
26909;DHT22;14477;51.038;4.588;2023-06-14T06:46:07;22.30;51.70
26909;DHT22;14477;51.038;4.588;2023-06-14T06:48:33;22.40;51.70
26909;DHT22;14477;51.038;4.588;2023-06-14T06:50:59;22.50;51.70
26909;DHT22;14477;51.038;4.588;2023-06-14T06:53:25;22.60;51.80
26909;DHT22;14477;51.038;4.588;2023-06-14T06:55:50;22.70;51.60
26909;DHT22;14477;51.038;4.588;2023-06-14T06:58:16;22.80;51.50
26909;DHT22;14477;51.038;4.588;2023-06-14T07:00:42;22.90;51.50
26909;DHT22;14477;51.038;4.588;2023-06-14T07:03:07;23.00;51.50
26909;DHT22;14477;51.038;4.588;2023-06-14T07:05:33;23.00;51.40
26909;DHT22;14477;51.038;4.588;2023-06-14T07:07:59;23.10;51.40
26909;DHT22;14477;51.038;4.588;2023-06-14T07:10:25;23.20;51.40
26909;DHT22;14477;51.038;4.588;2023-06-14T07:12:51;23.40;51.40
26909;DHT22;14477;51.038;4.588;2023-06-14T07:15:17;23.50;51.30
26909;DHT22;14477;51.038;4.588;2023-06-14T07:17:42;23.60;51.20
26909;DHT22;14477;51.038;4.588;2023-06-14T07:20:09;23.60;51.10
26909;DHT22;14477;51.038;4.588;2023-06-14T07:22:40;23.70;51.00
26909;DHT22;14477;51.038;4.588;2023-06-14T07:25:09;23.90;50.90
26909;DHT22;14477;51.038;4.588;2023-06-14T07:27:40;23.90;50.80
26909;DHT22;14477;51.038;4.588;2023-06-14T07:30:07;24.00;50.80
26909;DHT22;14477;51.038;4.588;2023-06-14T07:32:32;24.20;50.80
26909;DHT22;14477;51.038;4.588;2023-06-14T07:34:58;24.30;50.80
26909;DHT22;14477;51.038;4.588;2023-06-14T07:37:24;24.30;50.70
26909;DHT22;14477;51.038;4.588;2023-06-14T07:39:50;24.50;50.50
26909;DHT22;14477;51.038;4.588;2023-06-14T07:42:15;24.50;50.40
26909;DHT22;14477;51.038;4.588;2023-06-14T07:44:41;24.70;50.30
26909;DHT22;14477;51.038;4.588;2023-06-14T07:47:07;24.70;50.20
26909;DHT22;14477;51.038;4.588;2023-06-14T07:49:33;24.90;50.00
26909;DHT22;14477;51.038;4.588;2023-06-14T07:51:58;25.00;49.80
26909;DHT22;14477;51.038;4.588;2023-06-14T07:54:24;25.00;49.70
26909;DHT22;14477;51.038;4.588;2023-06-14T07:56:52;25.20;49.80
26909;DHT22;14477;51.038;4.588;2023-06-14T07:59:17;25.30;49.90
26909;DHT22;14477;51.038;4.588;2023-06-14T08:01:43;25.40;50.10
26909;DHT22;14477;51.038;4.588;2023-06-14T08:04:15;25.60;50.20
26909;DHT22;14477;51.038;4.588;2023-06-14T08:06:41;25.80;49.90
26909;DHT22;14477;51.038;4.588;2023-06-14T08:09:10;26.10;49.80
26909;DHT22;14477;51.038;4.588;2023-06-14T08:11:36;26.20;49.50
26909;DHT22;14477;51.038;4.588;2023-06-14T08:14:02;26.50;49.80
26909;DHT22;14477;51.038;4.588;2023-06-14T08:16:28;26.70;50.50
26909;DHT22;14477;51.038;4.588;2023-06-14T08:18:54;27.00;51.40
26909;DHT22;14477;51.038;4.588;2023-06-14T08:21:20;27.40;51.00
26909;DHT22;14477;51.038;4.588;2023-06-14T08:23:46;27.80;50.60
26909;DHT22;14477;51.038;4.588;2023-06-14T08:26:13;28.30;50.30
26909;DHT22;14477;51.038;4.588;2023-06-14T08:28:38;28.80;49.80
26909;DHT22;14477;51.038;4.588;2023-06-14T08:31:04;29.20;49.50
26909;DHT22;14477;51.038;4.588;2023-06-14T08:33:30;29.60;48.80
26909;DHT22;14477;51.038;4.588;2023-06-14T08:35:59;30.00;48.20
26909;DHT22;14477;51.038;4.588;2023-06-14T08:38:25;30.50;47.20
26909;DHT22;14477;51.038;4.588;2023-06-14T08:40:51;30.80;46.40
26909;DHT22;14477;51.038;4.588;2023-06-14T08:43:18;31.10;46.20
26909;DHT22;14477;51.038;4.588;2023-06-14T08:45:46;31.40;45.50
26909;DHT22;14477;51.038;4.588;2023-06-14T08:48:13;31.80;45.10
26909;DHT22;14477;51.038;4.588;2023-06-14T08:50:43;32.10;44.80
26909;DHT22;14477;51.038;4.588;2023-06-14T08:53:13;32.40;44.20
26909;DHT22;14477;51.038;4.588;2023-06-14T08:55:45;32.60;43.10
26909;DHT22;14477;51.038;4.588;2023-06-14T08:58:13;32.80;42.60
26909;DHT22;14477;51.038;4.588;2023-06-14T09:00:39;33.10;42.20
26909;DHT22;14477;51.038;4.588;2023-06-14T09:03:07;33.30;42.00
26909;DHT22;14477;51.038;4.588;2023-06-14T09:05:38;33.40;41.30
26909;DHT22;14477;51.038;4.588;2023-06-14T09:08:04;33.60;41.00
26909;DHT22;14477;51.038;4.588;2023-06-14T09:10:31;33.80;40.60
26909;DHT22;14477;51.038;4.588;2023-06-14T09:13:02;33.90;40.30
26909;DHT22;14477;51.038;4.588;2023-06-14T09:15:29;34.10;39.70
26909;DHT22;14477;51.038;4.588;2023-06-14T09:17:55;34.20;39.00
26909;DHT22;14477;51.038;4.588;2023-06-14T09:20:24;34.30;39.10
26909;DHT22;14477;51.038;4.588;2023-06-14T09:22:50;34.50;38.50
26909;DHT22;14477;51.038;4.588;2023-06-14T09:25:16;34.70;37.80
26909;DHT22;14477;51.038;4.588;2023-06-14T09:27:43;34.70;37.10
26909;DHT22;14477;51.038;4.588;2023-06-14T09:30:11;34.90;37.30
26909;DHT22;14477;51.038;4.588;2023-06-14T09:32:41;35.00;37.20
26909;DHT22;14477;51.038;4.588;2023-06-14T09:35:07;35.20;37.00
26909;DHT22;14477;51.038;4.588;2023-06-14T09:37:34;35.30;36.80
26909;DHT22;14477;51.038;4.588;2023-06-14T09:40:00;35.50;36.30
26909;DHT22;14477;51.038;4.588;2023-06-14T09:42:26;35.70;36.20
26909;DHT22;14477;51.038;4.588;2023-06-14T09:44:56;35.80;35.00
26909;DHT22;14477;51.038;4.588;2023-06-14T09:47:23;35.90;34.80
26909;DHT22;14477;51.038;4.588;2023-06-14T09:49:50;36.00;34.00
26909;DHT22;14477;51.038;4.588;2023-06-14T09:52:18;36.00;33.40
26909;DHT22;14477;51.038;4.588;2023-06-14T09:54:45;36.00;33.50
26909;DHT22;14477;51.038;4.588;2023-06-14T09:57:22;36.10;33.20
26909;DHT22;14477;51.038;4.588;2023-06-14T09:59:53;36.10;32.20
26909;DHT22;14477;51.038;4.588;2023-06-14T10:02:26;36.20;32.70
26909;DHT22;14477;51.038;4.588;2023-06-14T10:05:05;36.30;32.50
26909;DHT22;14477;51.038;4.588;2023-06-14T10:07:47;36.40;31.90
26909;DHT22;14477;51.038;4.588;2023-06-14T10:10:14;36.50;32.50
26909;DHT22;14477;51.038;4.588;2023-06-14T10:12:40;36.70;32.40
26909;DHT22;14477;51.038;4.588;2023-06-14T10:15:08;36.90;32.20
26909;DHT22;14477;51.038;4.588;2023-06-14T10:17:49;37.00;32.10
26909;DHT22;14477;51.038;4.588;2023-06-14T10:23:21;37.30;30.60
26909;DHT22;14477;51.038;4.588;2023-06-14T10:25:56;37.40;31.10
26909;DHT22;14477;51.038;4.588;2023-06-14T10:28:22;37.60;30.50
26909;DHT22;14477;51.038;4.588;2023-06-14T10:31:11;37.70;31.10
26909;DHT22;14477;51.038;4.588;2023-06-14T10:39:17;38.00;30.10
26909;DHT22;14477;51.038;4.588;2023-06-14T10:41:52;38.10;30.00
26909;DHT22;14477;51.038;4.588;2023-06-14T10:46:54;38.20;29.50
26909;DHT22;14477;51.038;4.588;2023-06-14T10:49:42;38.40;29.30
26909;DHT22;14477;51.038;4.588;2023-06-14T10:52:13;38.40;29.10
26909;DHT22;14477;51.038;4.588;2023-06-14T10:57:24;38.50;28.50
26909;DHT22;14477;51.038;4.588;2023-06-14T10:59:50;38.50;28.80
26909;DHT22;14477;51.038;4.588;2023-06-14T11:04:52;38.60;28.40
26909;DHT22;14477;51.038;4.588;2023-06-14T11:07:38;38.70;28.30
26909;DHT22;14477;51.038;4.588;2023-06-14T11:12:47;38.90;28.10
26909;DHT22;14477;51.038;4.588;2023-06-14T11:15:14;39.00;28.10
26909;DHT22;14477;51.038;4.588;2023-06-14T11:17:39;39.00;27.90
26909;DHT22;14477;51.038;4.588;2023-06-14T11:20:15;39.00;27.50
26909;DHT22;14477;51.038;4.588;2023-06-14T11:22:44;39.00;27.60
26909;DHT22;14477;51.038;4.588;2023-06-14T11:25:12;39.10;27.20
26909;DHT22;14477;51.038;4.588;2023-06-14T11:27:37;39.10;27.30
26909;DHT22;14477;51.038;4.588;2023-06-14T11:30:06;39.20;27.50
26909;DHT22;14477;51.038;4.588;2023-06-14T11:32:32;39.10;27.20
26909;DHT22;14477;51.038;4.588;2023-06-14T11:34:58;39.20;27.20
26909;DHT22;14477;51.038;4.588;2023-06-14T11:37:26;39.20;27.20
26909;DHT22;14477;51.038;4.588;2023-06-14T11:39:57;39.20;26.70
26909;DHT22;14477;51.038;4.588;2023-06-14T11:42:23;39.20;26.60
26909;DHT22;14477;51.038;4.588;2023-06-14T11:44:52;39.10;26.80
26909;DHT22;14477;51.038;4.588;2023-06-14T11:47:18;39.20;26.70
26909;DHT22;14477;51.038;4.588;2023-06-14T11:49:44;39.20;27.00
26909;DHT22;14477;51.038;4.588;2023-06-14T11:52:10;39.20;26.80
26909;DHT22;14477;51.038;4.588;2023-06-14T11:54:37;39.30;26.70
26909;DHT22;14477;51.038;4.588;2023-06-14T11:57:03;39.30;26.30
26909;DHT22;14477;51.038;4.588;2023-06-14T11:59:29;39.30;26.50
26909;DHT22;14477;51.038;4.588;2023-06-14T12:01:56;39.40;26.50
26909;DHT22;14477;51.038;4.588;2023-06-14T12:04:29;39.30;26.60
26909;DHT22;14477;51.038;4.588;2023-06-14T12:06:55;39.40;26.00
26909;DHT22;14477;51.038;4.588;2023-06-14T12:09:21;39.30;25.90
26909;DHT22;14477;51.038;4.588;2023-06-14T12:11:49;39.30;25.50
26909;DHT22;14477;51.038;4.588;2023-06-14T12:14:15;39.20;25.70
26909;DHT22;14477;51.038;4.588;2023-06-14T12:16:42;39.10;25.70
26909;DHT22;14477;51.038;4.588;2023-06-14T12:19:17;39.10;25.80
26909;DHT22;14477;51.038;4.588;2023-06-14T12:21:46;39.10;25.50
26909;DHT22;14477;51.038;4.588;2023-06-14T12:24:16;39.10;26.10
26909;DHT22;14477;51.038;4.588;2023-06-14T12:26:42;39.10;26.00
26909;DHT22;14477;51.038;4.588;2023-06-14T12:29:08;39.20;25.90
26909;DHT22;14477;51.038;4.588;2023-06-14T12:31:34;39.20;25.60
26909;DHT22;14477;51.038;4.588;2023-06-14T12:34:00;39.20;25.40
26909;DHT22;14477;51.038;4.588;2023-06-14T12:36:26;39.20;25.20
26909;DHT22;14477;51.038;4.588;2023-06-14T12:38:52;39.10;26.00
26909;DHT22;14477;51.038;4.588;2023-06-14T12:41:22;39.10;25.50
26909;DHT22;14477;51.038;4.588;2023-06-14T12:43:48;39.10;24.90
26909;DHT22;14477;51.038;4.588;2023-06-14T12:46:14;39.00;25.10
26909;DHT22;14477;51.038;4.588;2023-06-14T12:48:40;38.90;25.00
26909;DHT22;14477;51.038;4.588;2023-06-14T12:51:05;38.80;25.20
26909;DHT22;14477;51.038;4.588;2023-06-14T12:53:31;38.90;25.30
26909;DHT22;14477;51.038;4.588;2023-06-14T12:55:57;38.90;25.20
26909;DHT22;14477;51.038;4.588;2023-06-14T12:58:23;39.00;25.10
26909;DHT22;14477;51.038;4.588;2023-06-14T13:00:49;39.10;25.20
26909;DHT22;14477;51.038;4.588;2023-06-14T13:03:15;39.20;25.20
26909;DHT22;14477;51.038;4.588;2023-06-14T13:05:41;39.20;24.90
26909;DHT22;14477;51.038;4.588;2023-06-14T13:08:07;39.20;24.70
26909;DHT22;14477;51.038;4.588;2023-06-14T13:10:34;39.10;24.40
26909;DHT22;14477;51.038;4.588;2023-06-14T13:13:00;39.00;24.30
26909;DHT22;14477;51.038;4.588;2023-06-14T13:15:26;38.90;24.20
26909;DHT22;14477;51.038;4.588;2023-06-14T13:17:52;38.80;23.70
26909;DHT22;14477;51.038;4.588;2023-06-14T13:20:18;38.60;24.00
26909;DHT22;14477;51.038;4.588;2023-06-14T13:22:44;38.50;24.10
26909;DHT22;14477;51.038;4.588;2023-06-14T13:25:10;38.50;24.40
26909;DHT22;14477;51.038;4.588;2023-06-14T13:27:35;38.40;24.20
26909;DHT22;14477;51.038;4.588;2023-06-14T13:30:02;38.40;24.20
26909;DHT22;14477;51.038;4.588;2023-06-14T13:32:28;38.40;24.10
26909;DHT22;14477;51.038;4.588;2023-06-14T13:34:54;38.30;23.90
26909;DHT22;14477;51.038;4.588;2023-06-14T13:37:20;38.20;23.80
26909;DHT22;14477;51.038;4.588;2023-06-14T13:39:45;38.10;23.40
26909;DHT22;14477;51.038;4.588;2023-06-14T13:42:11;37.90;23.60
26909;DHT22;14477;51.038;4.588;2023-06-14T13:44:37;37.70;23.70
26909;DHT22;14477;51.038;4.588;2023-06-14T13:47:03;37.70;24.30
26909;DHT22;14477;51.038;4.588;2023-06-14T13:49:29;37.60;24.10
26909;DHT22;14477;51.038;4.588;2023-06-14T13:51:55;37.50;24.10
26909;DHT22;14477;51.038;4.588;2023-06-14T13:54:21;37.50;24.20
26909;DHT22;14477;51.038;4.588;2023-06-14T13:56:47;37.60;24.10
26909;DHT22;14477;51.038;4.588;2023-06-14T13:59:12;37.50;24.10
26909;DHT22;14477;51.038;4.588;2023-06-14T14:01:39;37.50;24.10
26909;DHT22;14477;51.038;4.588;2023-06-14T14:04:05;37.50;24.10
26909;DHT22;14477;51.038;4.588;2023-06-14T14:06:31;37.50;24.20
26909;DHT22;14477;51.038;4.588;2023-06-14T14:08:57;37.50;23.90
26909;DHT22;14477;51.038;4.588;2023-06-14T14:11:23;37.40;23.60
26909;DHT22;14477;51.038;4.588;2023-06-14T14:13:48;37.30;23.90
26909;DHT22;14477;51.038;4.588;2023-06-14T14:16:14;37.20;24.00
26909;DHT22;14477;51.038;4.588;2023-06-14T14:18:40;37.10;23.90
26909;DHT22;14477;51.038;4.588;2023-06-14T14:21:06;37.00;24.20
26909;DHT22;14477;51.038;4.588;2023-06-14T14:23:32;37.00;24.30
26909;DHT22;14477;51.038;4.588;2023-06-14T14:25:58;36.90;24.10
26909;DHT22;14477;51.038;4.588;2023-06-14T14:28:24;36.90;24.40
26909;DHT22;14477;51.038;4.588;2023-06-14T14:30:49;36.70;24.30
26909;DHT22;14477;51.038;4.588;2023-06-14T14:33:16;36.60;24.40
26909;DHT22;14477;51.038;4.588;2023-06-14T14:35:43;36.60;24.60
26909;DHT22;14477;51.038;4.588;2023-06-14T14:38:12;36.50;24.40
26909;DHT22;14477;51.038;4.588;2023-06-14T14:40:39;36.30;24.30
26909;DHT22;14477;51.038;4.588;2023-06-14T14:43:05;36.20;24.30
26909;DHT22;14477;51.038;4.588;2023-06-14T14:45:31;36.10;24.60
26909;DHT22;14477;51.038;4.588;2023-06-14T14:47:57;35.90;24.30
26909;DHT22;14477;51.038;4.588;2023-06-14T14:50:23;35.70;24.20
26909;DHT22;14477;51.038;4.588;2023-06-14T14:52:48;35.50;24.10
26909;DHT22;14477;51.038;4.588;2023-06-14T14:55:14;35.30;24.20
26909;DHT22;14477;51.038;4.588;2023-06-14T14:57:40;35.10;24.40
26909;DHT22;14477;51.038;4.588;2023-06-14T15:00:06;35.00;24.50
26909;DHT22;14477;51.038;4.588;2023-06-14T15:02:33;34.80;24.60
26909;DHT22;14477;51.038;4.588;2023-06-14T15:04:59;34.80;24.70
26909;DHT22;14477;51.038;4.588;2023-06-14T15:07:30;34.70;24.70
26909;DHT22;14477;51.038;4.588;2023-06-14T15:10:02;34.70;24.90
26909;DHT22;14477;51.038;4.588;2023-06-14T15:12:29;34.50;25.10
26909;DHT22;14477;51.038;4.588;2023-06-14T15:14:55;34.50;25.00
26909;DHT22;14477;51.038;4.588;2023-06-14T15:17:21;34.50;25.00
26909;DHT22;14477;51.038;4.588;2023-06-14T15:19:48;34.40;25.10
26909;DHT22;14477;51.038;4.588;2023-06-14T15:22:14;34.30;25.10
26909;DHT22;14477;51.038;4.588;2023-06-14T15:24:41;34.30;25.20
26909;DHT22;14477;51.038;4.588;2023-06-14T15:27:07;34.20;25.40
26909;DHT22;14477;51.038;4.588;2023-06-14T15:29:33;34.20;25.40
26909;DHT22;14477;51.038;4.588;2023-06-14T15:32:01;34.10;25.40
26909;DHT22;14477;51.038;4.588;2023-06-14T15:34:27;34.10;25.50
26909;DHT22;14477;51.038;4.588;2023-06-14T15:36:52;34.00;25.60
26909;DHT22;14477;51.038;4.588;2023-06-14T15:39:18;34.00;25.70
26909;DHT22;14477;51.038;4.588;2023-06-14T15:41:44;33.90;25.70
26909;DHT22;14477;51.038;4.588;2023-06-14T15:44:09;33.90;25.90
26909;DHT22;14477;51.038;4.588;2023-06-14T15:46:36;33.80;25.90
26909;DHT22;14477;51.038;4.588;2023-06-14T15:49:09;33.70;26.00
26909;DHT22;14477;51.038;4.588;2023-06-14T15:51:36;33.60;26.10
26909;DHT22;14477;51.038;4.588;2023-06-14T15:54:01;33.60;26.20
26909;DHT22;14477;51.038;4.588;2023-06-14T15:56:27;33.50;26.20